Algoma, Wisconsin
Current Conditions -  °F | °C
As of 3:55 PM on Wednesday 26 Nov 2014 (Local Time) from KSUE Reporting Station
Few Clouds Few Clouds  
Wind Chill: -5°   Ceiling: Unl
Heat Index: -5°   Visibility: 10mi
Dew Point: -9°   Wind: 0mph
Humidity: 74%   Direction: NA
Pressure: 30.16"   Gusts: NA
Location:  44.61°N, 87.43°W
Report Text: KSUE 262155Z AUTO 00000KT 10SM FEW065 M05/M09 A3016 RMK AO1
Loading
Personal Weather Stations






























Interactive Weather Map New forecast layout! Learn more

10-Day Weather Forecast

Advertisements
Track Severe Weather on mobile